KJES

Jesup-Wayne County Airport

Jesup, Georgia, USA
METAR KJES 212039Z AUTO 03008KT 10SM CLR 21/01 A3015 RMK AO2
Observed Flight Rules
Oct-21 @ 20:39 UTC (30 minutes ago) Visual Flight Rules
Wind Visibility Clouds
30° at 8 knots 10 miles
  • Clear skies
Temperatures Readings
Current 21°C / 70°F
Dewpoint 1°C / 34°F
Humidity 27%
Altimeter 30.15" Hg
Pressure 1021 hPa
Elevation 33
METAR KJES 212039Z AUTO 03008KT 10SM CLR 21/01 A3015 RMK AO2
Observed Flight Rules
Oct-21 @ 20:39 UTC
(30 minutes ago)
VFR
Wind Visibility
30° at 8 knots 10 miles
Clouds
  • Clear skies
Temperature Dewpoint
21°C / 70°F 1°C / 34°F
Humidity Altimeter Pressure
27% 30.15" Hg 1021 hPa